<?xml version="1.0" encoding="UTF-8" standalone="no" ?>
<gpx xmlns="http://www.topografix.com/GPX/1/1" xmlns:xsi="http://www.w3.org/2001/XMLSchema-instance" xsi:schemaLocation="http://www.topografix.com/GPX/1/1 http://www.topografix.com/GPX/1/1/gpx.xsd" version="1.1" creator="VisuGPX - https://www.visugpx.com">
  <metadata>
    <name>Pintièvre cote sauvage</name>
    <desc><![CDATA[Très belle randonnée sur la presqu'ile de Quiberon. Attention aux horaires de marées]]></desc>
  </metadata>
  <trk>
    <name><![CDATA[20180323191047-oCZL5]]></name>
    <trkseg>
      <trkpt lat="47.54252" lon="-3.13445">
        <ele>7</ele>
        <time>2018-03-23T19:07:37Z</time>
      </trkpt>
      <trkpt lat="47.54225" lon="-3.13376">
        <ele>5</ele>
        <time>2018-03-23T19:08:37Z</time>
      </trkpt>
      <trkpt lat="47.5418" lon="-3.13357">
        <ele>5</ele>
        <time>2018-03-23T19:09:37Z</time>
      </trkpt>
      <trkpt lat="47.54103" lon="-3.13295">
        <ele>7</ele>
        <time>2018-03-23T19:10:37Z</time>
      </trkpt>
      <trkpt lat="47.5406" lon="-3.13261">
        <ele>8</ele>
        <time>2018-03-23T19:11:37Z</time>
      </trkpt>
      <trkpt lat="47.54029" lon="-3.13278">
        <ele>10</ele>
        <time>2018-03-23T19:12:37Z</time>
      </trkpt>
      <trkpt lat="47.53989" lon="-3.13239">
        <ele>10</ele>
        <time>2018-03-23T19:13:37Z</time>
      </trkpt>
      <trkpt lat="47.53948" lon="-3.13217">
        <ele>10</ele>
        <time>2018-03-23T19:14:37Z</time>
      </trkpt>
      <trkpt lat="47.53912" lon="-3.13189">
        <ele>14</ele>
        <time>2018-03-23T19:15:37Z</time>
      </trkpt>
      <trkpt lat="47.53884" lon="-3.13127">
        <ele>12</ele>
        <time>2018-03-23T19:16:37Z</time>
      </trkpt>
      <trkpt lat="47.5385" lon="-3.13132">
        <ele>12</ele>
        <time>2018-03-23T19:17:37Z</time>
      </trkpt>
      <trkpt lat="47.53803" lon="-3.1317">
        <ele>13</ele>
        <time>2018-03-23T19:18:37Z</time>
      </trkpt>
      <trkpt lat="47.53757" lon="-3.13171">
        <ele>13</ele>
        <time>2018-03-23T19:19:37Z</time>
      </trkpt>
      <trkpt lat="47.53711" lon="-3.13204">
        <ele>12</ele>
        <time>2018-03-23T19:20:37Z</time>
      </trkpt>
      <trkpt lat="47.53676" lon="-3.13204">
        <ele>12</ele>
        <time>2018-03-23T19:21:37Z</time>
      </trkpt>
      <trkpt lat="47.53643" lon="-3.13204">
        <ele>10</ele>
        <time>2018-03-23T19:22:37Z</time>
      </trkpt>
      <trkpt lat="47.53605" lon="-3.132">
        <ele>8</ele>
        <time>2018-03-23T19:23:37Z</time>
      </trkpt>
      <trkpt lat="47.53582" lon="-3.13192">
        <ele>6</ele>
        <time>2018-03-23T19:24:37Z</time>
      </trkpt>
      <trkpt lat="47.53553" lon="-3.13185">
        <ele>6</ele>
        <time>2018-03-23T19:25:37Z</time>
      </trkpt>
      <trkpt lat="47.53525" lon="-3.13185">
        <ele>6</ele>
        <time>2018-03-23T19:26:37Z</time>
      </trkpt>
      <trkpt lat="47.53498" lon="-3.13196">
        <ele>5</ele>
        <time>2018-03-23T19:27:37Z</time>
      </trkpt>
      <trkpt lat="47.53472" lon="-3.13213">
        <ele>6</ele>
        <time>2018-03-23T19:28:37Z</time>
      </trkpt>
      <trkpt lat="47.53444" lon="-3.1323">
        <ele>6</ele>
        <time>2018-03-23T19:29:37Z</time>
      </trkpt>
      <trkpt lat="47.53422" lon="-3.13243">
        <ele>6</ele>
        <time>2018-03-23T19:30:37Z</time>
      </trkpt>
      <trkpt lat="47.53396" lon="-3.1325">
        <ele>6</ele>
        <time>2018-03-23T19:31:37Z</time>
      </trkpt>
      <trkpt lat="47.53373" lon="-3.1326">
        <ele>7</ele>
        <time>2018-03-23T19:32:37Z</time>
      </trkpt>
      <trkpt lat="47.53341" lon="-3.13275">
        <ele>7</ele>
        <time>2018-03-23T19:33:37Z</time>
      </trkpt>
      <trkpt lat="47.53317" lon="-3.13295">
        <ele>7</ele>
        <time>2018-03-23T19:34:37Z</time>
      </trkpt>
      <trkpt lat="47.53296" lon="-3.13299">
        <ele>7</ele>
        <time>2018-03-23T19:35:37Z</time>
      </trkpt>
      <trkpt lat="47.53269" lon="-3.1331">
        <ele>8</ele>
        <time>2018-03-23T19:36:37Z</time>
      </trkpt>
      <trkpt lat="47.53243" lon="-3.1332">
        <ele>8</ele>
        <time>2018-03-23T19:37:37Z</time>
      </trkpt>
      <trkpt lat="47.53205" lon="-3.1332">
        <ele>8</ele>
        <time>2018-03-23T19:38:37Z</time>
      </trkpt>
      <trkpt lat="47.5317" lon="-3.13316">
        <ele>8</ele>
        <time>2018-03-23T19:39:37Z</time>
      </trkpt>
      <trkpt lat="47.53149" lon="-3.13299">
        <ele>8</ele>
        <time>2018-03-23T19:40:37Z</time>
      </trkpt>
      <trkpt lat="47.5312" lon="-3.13284">
        <ele>9</ele>
        <time>2018-03-23T19:41:37Z</time>
      </trkpt>
      <trkpt lat="47.53096" lon="-3.13284">
        <ele>9</ele>
        <time>2018-03-23T19:42:37Z</time>
      </trkpt>
      <trkpt lat="47.5307" lon="-3.13273">
        <ele>7</ele>
        <time>2018-03-23T19:43:37Z</time>
      </trkpt>
      <trkpt lat="47.5304" lon="-3.13232">
        <ele>4</ele>
        <time>2018-03-23T19:44:37Z</time>
      </trkpt>
      <trkpt lat="47.53014" lon="-3.13217">
        <ele>4</ele>
        <time>2018-03-23T19:45:37Z</time>
      </trkpt>
      <trkpt lat="47.52992" lon="-3.13207">
        <ele>5</ele>
        <time>2018-03-23T19:46:37Z</time>
      </trkpt>
      <trkpt lat="47.52962" lon="-3.13209">
        <ele>5</ele>
        <time>2018-03-23T19:47:37Z</time>
      </trkpt>
      <trkpt lat="47.52936" lon="-3.13215">
        <ele>5</ele>
        <time>2018-03-23T19:48:37Z</time>
      </trkpt>
      <trkpt lat="47.52908" lon="-3.13215">
        <ele>6</ele>
        <time>2018-03-23T19:49:37Z</time>
      </trkpt>
      <trkpt lat="47.52882" lon="-3.13213">
        <ele>6</ele>
        <time>2018-03-23T19:50:37Z</time>
      </trkpt>
      <trkpt lat="47.52852" lon="-3.13202">
        <ele>6</ele>
        <time>2018-03-23T19:51:37Z</time>
      </trkpt>
      <trkpt lat="47.52823" lon="-3.13202">
        <ele>6</ele>
        <time>2018-03-23T19:52:37Z</time>
      </trkpt>
      <trkpt lat="47.52791" lon="-3.13187">
        <ele>6</ele>
        <time>2018-03-23T19:53:37Z</time>
      </trkpt>
      <trkpt lat="47.52768" lon="-3.13164">
        <ele>5</ele>
        <time>2018-03-23T19:54:37Z</time>
      </trkpt>
      <trkpt lat="47.5274" lon="-3.13138">
        <ele>6</ele>
        <time>2018-03-23T19:55:37Z</time>
      </trkpt>
      <trkpt lat="47.52708" lon="-3.13125">
        <ele>6</ele>
        <time>2018-03-23T19:56:37Z</time>
      </trkpt>
      <trkpt lat="47.52685" lon="-3.13108">
        <ele>6</ele>
        <time>2018-03-23T19:57:37Z</time>
      </trkpt>
      <trkpt lat="47.52666" lon="-3.13078">
        <ele>7</ele>
        <time>2018-03-23T19:58:37Z</time>
      </trkpt>
      <trkpt lat="47.52662" lon="-3.13041">
        <ele>8</ele>
        <time>2018-03-23T19:59:37Z</time>
      </trkpt>
      <trkpt lat="47.52647" lon="-3.13018">
        <ele>9</ele>
        <time>2018-03-23T20:00:37Z</time>
      </trkpt>
      <trkpt lat="47.52626" lon="-3.12964">
        <ele>11</ele>
        <time>2018-03-23T20:01:37Z</time>
      </trkpt>
      <trkpt lat="47.5261" lon="-3.1293">
        <ele>10</ele>
        <time>2018-03-23T20:02:37Z</time>
      </trkpt>
      <trkpt lat="47.52605" lon="-3.12878">
        <ele>9</ele>
        <time>2018-03-23T20:03:37Z</time>
      </trkpt>
      <trkpt lat="47.52586" lon="-3.12844">
        <ele>7</ele>
        <time>2018-03-23T20:04:37Z</time>
      </trkpt>
      <trkpt lat="47.52557" lon="-3.12835">
        <ele>8</ele>
        <time>2018-03-23T20:05:37Z</time>
      </trkpt>
      <trkpt lat="47.52537" lon="-3.12835">
        <ele>9</ele>
        <time>2018-03-23T20:06:37Z</time>
      </trkpt>
      <trkpt lat="47.52515" lon="-3.12848">
        <ele>10</ele>
        <time>2018-03-23T20:07:37Z</time>
      </trkpt>
      <trkpt lat="47.52498" lon="-3.12872">
        <ele>12</ele>
        <time>2018-03-23T20:08:37Z</time>
      </trkpt>
      <trkpt lat="47.52473" lon="-3.12883">
        <ele>12</ele>
        <time>2018-03-23T20:09:37Z</time>
      </trkpt>
      <trkpt lat="47.52455" lon="-3.12895">
        <ele>12</ele>
        <time>2018-03-23T20:10:37Z</time>
      </trkpt>
      <trkpt lat="47.5243" lon="-3.1291">
        <ele>12</ele>
        <time>2018-03-23T20:11:37Z</time>
      </trkpt>
      <trkpt lat="47.5241" lon="-3.12928">
        <ele>12</ele>
        <time>2018-03-23T20:12:37Z</time>
      </trkpt>
      <trkpt lat="47.52389" lon="-3.12926">
        <ele>12</ele>
        <time>2018-03-23T20:13:37Z</time>
      </trkpt>
      <trkpt lat="47.52355" lon="-3.12941">
        <ele>11</ele>
        <time>2018-03-23T20:14:37Z</time>
      </trkpt>
      <trkpt lat="47.52328" lon="-3.12956">
        <ele>11</ele>
        <time>2018-03-23T20:15:37Z</time>
      </trkpt>
      <trkpt lat="47.52293" lon="-3.12962">
        <ele>11</ele>
        <time>2018-03-23T20:16:37Z</time>
      </trkpt>
      <trkpt lat="47.52265" lon="-3.12983">
        <ele>11</ele>
        <time>2018-03-23T20:17:37Z</time>
      </trkpt>
      <trkpt lat="47.52233" lon="-3.12992">
        <ele>10</ele>
        <time>2018-03-23T20:18:37Z</time>
      </trkpt>
      <trkpt lat="47.52208" lon="-3.12996">
        <ele>9</ele>
        <time>2018-03-23T20:19:37Z</time>
      </trkpt>
      <trkpt lat="47.52181" lon="-3.12998">
        <ele>8</ele>
        <time>2018-03-23T20:20:37Z</time>
      </trkpt>
      <trkpt lat="47.52149" lon="-3.12983">
        <ele>7</ele>
        <time>2018-03-23T20:21:37Z</time>
      </trkpt>
      <trkpt lat="47.52127" lon="-3.12979">
        <ele>7</ele>
        <time>2018-03-23T20:22:37Z</time>
      </trkpt>
      <trkpt lat="47.5211" lon="-3.12956">
        <ele>7</ele>
        <time>2018-03-23T20:23:37Z</time>
      </trkpt>
      <trkpt lat="47.52094" lon="-3.12949">
        <ele>7</ele>
        <time>2018-03-23T20:24:37Z</time>
      </trkpt>
      <trkpt lat="47.52054" lon="-3.1292">
        <ele>7</ele>
        <time>2018-03-23T20:25:37Z</time>
      </trkpt>
      <trkpt lat="47.52046" lon="-3.12861">
        <ele>7</ele>
        <time>2018-03-23T20:26:37Z</time>
      </trkpt>
      <trkpt lat="47.5204" lon="-3.12823">
        <ele>7</ele>
        <time>2018-03-23T20:27:37Z</time>
      </trkpt>
      <trkpt lat="47.52034" lon="-3.12782">
        <ele>6</ele>
        <time>2018-03-23T20:28:37Z</time>
      </trkpt>
      <trkpt lat="47.5203" lon="-3.12747">
        <ele>6</ele>
        <time>2018-03-23T20:29:37Z</time>
      </trkpt>
      <trkpt lat="47.52009" lon="-3.12664">
        <ele>4.6</ele>
        <time>2018-03-23T20:30:37Z</time>
      </trkpt>
      <trkpt lat="47.51994" lon="-3.12664">
        <ele>8</ele>
        <time>2018-03-23T20:31:37Z</time>
      </trkpt>
      <trkpt lat="47.51972" lon="-3.12657">
        <ele>8</ele>
        <time>2018-03-23T20:32:37Z</time>
      </trkpt>
      <trkpt lat="47.51952" lon="-3.12666">
        <ele>8</ele>
        <time>2018-03-23T20:33:37Z</time>
      </trkpt>
      <trkpt lat="47.51924" lon="-3.12664">
        <ele>8</ele>
        <time>2018-03-23T20:34:37Z</time>
      </trkpt>
      <trkpt lat="47.51908" lon="-3.12655">
        <ele>8</ele>
        <time>2018-03-23T20:35:37Z</time>
      </trkpt>
      <trkpt lat="47.51879" lon="-3.12655">
        <ele>8</ele>
        <time>2018-03-23T20:36:37Z</time>
      </trkpt>
      <trkpt lat="47.51856" lon="-3.12644">
        <ele>9</ele>
        <time>2018-03-23T20:37:37Z</time>
      </trkpt>
      <trkpt lat="47.51826" lon="-3.1264">
        <ele>8</ele>
        <time>2018-03-23T20:38:37Z</time>
      </trkpt>
      <trkpt lat="47.51794" lon="-3.12606">
        <ele>8</ele>
        <time>2018-03-23T20:39:37Z</time>
      </trkpt>
      <trkpt lat="47.51766" lon="-3.12606">
        <ele>7</ele>
        <time>2018-03-23T20:40:37Z</time>
      </trkpt>
      <trkpt lat="47.51726" lon="-3.12599">
        <ele>7</ele>
        <time>2018-03-23T20:41:37Z</time>
      </trkpt>
      <trkpt lat="47.517" lon="-3.12612">
        <ele>8</ele>
        <time>2018-03-23T20:42:37Z</time>
      </trkpt>
      <trkpt lat="47.51672" lon="-3.12625">
        <ele>8</ele>
        <time>2018-03-23T20:43:37Z</time>
      </trkpt>
      <trkpt lat="47.51645" lon="-3.12651">
        <ele>9</ele>
        <time>2018-03-23T20:44:37Z</time>
      </trkpt>
      <trkpt lat="47.51607" lon="-3.12655">
        <ele>9</ele>
        <time>2018-03-23T20:45:37Z</time>
      </trkpt>
      <trkpt lat="47.51575" lon="-3.12653">
        <ele>9</ele>
        <time>2018-03-23T20:46:37Z</time>
      </trkpt>
      <trkpt lat="47.51553" lon="-3.12668">
        <ele>9</ele>
        <time>2018-03-23T20:47:37Z</time>
      </trkpt>
      <trkpt lat="47.51517" lon="-3.1267">
        <ele>8</ele>
        <time>2018-03-23T20:48:37Z</time>
      </trkpt>
      <trkpt lat="47.51485" lon="-3.12672">
        <ele>7</ele>
        <time>2018-03-23T20:49:37Z</time>
      </trkpt>
      <trkpt lat="47.51458" lon="-3.12659">
        <ele>6</ele>
        <time>2018-03-23T20:50:37Z</time>
      </trkpt>
      <trkpt lat="47.51427" lon="-3.12674">
        <ele>6</ele>
        <time>2018-03-23T20:51:37Z</time>
      </trkpt>
      <trkpt lat="47.51389" lon="-3.12674">
        <ele>6</ele>
        <time>2018-03-23T20:52:37Z</time>
      </trkpt>
      <trkpt lat="47.51356" lon="-3.12674">
        <ele>5</ele>
        <time>2018-03-23T20:53:37Z</time>
      </trkpt>
      <trkpt lat="47.51318" lon="-3.12672">
        <ele>5</ele>
        <time>2018-03-23T20:54:37Z</time>
      </trkpt>
      <trkpt lat="47.51301" lon="-3.12651">
        <ele>5</ele>
        <time>2018-03-23T20:55:37Z</time>
      </trkpt>
      <trkpt lat="47.51262" lon="-3.12625">
        <ele>6</ele>
        <time>2018-03-23T20:56:37Z</time>
      </trkpt>
      <trkpt lat="47.51227" lon="-3.12595">
        <ele>8</ele>
        <time>2018-03-23T20:57:37Z</time>
      </trkpt>
      <trkpt lat="47.51201" lon="-3.12567">
        <ele>7</ele>
        <time>2018-03-23T20:58:37Z</time>
      </trkpt>
      <trkpt lat="47.51175" lon="-3.12528">
        <ele>5</ele>
        <time>2018-03-23T20:59:37Z</time>
      </trkpt>
      <trkpt lat="47.51151" lon="-3.12495">
        <ele>5</ele>
        <time>2018-03-23T21:00:37Z</time>
      </trkpt>
      <trkpt lat="47.51134" lon="-3.12443">
        <ele>6</ele>
        <time>2018-03-23T21:01:37Z</time>
      </trkpt>
      <trkpt lat="47.51119" lon="-3.12416">
        <ele>5</ele>
        <time>2018-03-23T21:02:37Z</time>
      </trkpt>
      <trkpt lat="47.51116" lon="-3.12388">
        <ele>5</ele>
        <time>2018-03-23T21:03:37Z</time>
      </trkpt>
      <trkpt lat="47.51089" lon="-3.124">
        <ele>5</ele>
        <time>2018-03-23T21:04:37Z</time>
      </trkpt>
      <trkpt lat="47.51056" lon="-3.12416">
        <ele>7</ele>
        <time>2018-03-23T21:05:37Z</time>
      </trkpt>
      <trkpt lat="47.51031" lon="-3.12425">
        <ele>8</ele>
        <time>2018-03-23T21:06:37Z</time>
      </trkpt>
      <trkpt lat="47.51" lon="-3.12426">
        <ele>9</ele>
        <time>2018-03-23T21:07:37Z</time>
      </trkpt>
      <trkpt lat="47.50983" lon="-3.12432">
        <ele>10</ele>
        <time>2018-03-23T21:08:37Z</time>
      </trkpt>
      <trkpt lat="47.5099" lon="-3.12491">
        <ele>10</ele>
        <time>2018-03-23T21:09:37Z</time>
      </trkpt>
      <trkpt lat="47.50974" lon="-3.12501">
        <ele>10</ele>
        <time>2018-03-23T21:10:37Z</time>
      </trkpt>
      <trkpt lat="47.5097" lon="-3.12521">
        <ele>10</ele>
        <time>2018-03-23T21:11:37Z</time>
      </trkpt>
      <trkpt lat="47.5093" lon="-3.12531">
        <ele>10</ele>
        <time>2018-03-23T21:12:37Z</time>
      </trkpt>
      <trkpt lat="47.5091" lon="-3.12535">
        <ele>11</ele>
        <time>2018-03-23T21:13:37Z</time>
      </trkpt>
      <trkpt lat="47.50875" lon="-3.12548">
        <ele>12</ele>
        <time>2018-03-23T21:14:37Z</time>
      </trkpt>
      <trkpt lat="47.50856" lon="-3.12553">
        <ele>12</ele>
        <time>2018-03-23T21:15:37Z</time>
      </trkpt>
      <trkpt lat="47.50847" lon="-3.12483">
        <ele>12</ele>
        <time>2018-03-23T21:16:37Z</time>
      </trkpt>
      <trkpt lat="47.50842" lon="-3.12449">
        <ele>12</ele>
        <time>2018-03-23T21:17:37Z</time>
      </trkpt>
      <trkpt lat="47.5083" lon="-3.12431">
        <ele>12</ele>
        <time>2018-03-23T21:18:37Z</time>
      </trkpt>
      <trkpt lat="47.50804" lon="-3.12419">
        <ele>13</ele>
        <time>2018-03-23T21:19:37Z</time>
      </trkpt>
      <trkpt lat="47.50762" lon="-3.12399">
        <ele>14</ele>
        <time>2018-03-23T21:20:37Z</time>
      </trkpt>
      <trkpt lat="47.50737" lon="-3.1239">
        <ele>14</ele>
        <time>2018-03-23T21:21:37Z</time>
      </trkpt>
      <trkpt lat="47.50706" lon="-3.12363">
        <ele>14</ele>
        <time>2018-03-23T21:22:37Z</time>
      </trkpt>
      <trkpt lat="47.5071" lon="-3.12282">
        <ele>13</ele>
        <time>2018-03-23T21:23:37Z</time>
      </trkpt>
      <trkpt lat="47.50737" lon="-3.12292">
        <ele>13</ele>
        <time>2018-03-23T21:24:37Z</time>
      </trkpt>
      <trkpt lat="47.50756" lon="-3.12292">
        <ele>14</ele>
        <time>2018-03-23T21:25:37Z</time>
      </trkpt>
      <trkpt lat="47.50766" lon="-3.12252">
        <ele>14</ele>
        <time>2018-03-23T21:26:37Z</time>
      </trkpt>
      <trkpt lat="47.50772" lon="-3.12205">
        <ele>13</ele>
        <time>2018-03-23T21:27:37Z</time>
      </trkpt>
      <trkpt lat="47.50779" lon="-3.1213">
        <ele>12</ele>
        <time>2018-03-23T21:28:37Z</time>
      </trkpt>
      <trkpt lat="47.50801" lon="-3.12117">
        <ele>12</ele>
        <time>2018-03-23T21:29:37Z</time>
      </trkpt>
      <trkpt lat="47.50827" lon="-3.12085">
        <ele>12</ele>
        <time>2018-03-23T21:30:37Z</time>
      </trkpt>
      <trkpt lat="47.50846" lon="-3.12046">
        <ele>12</ele>
        <time>2018-03-23T21:31:37Z</time>
      </trkpt>
      <trkpt lat="47.50856" lon="-3.12003">
        <ele>12</ele>
        <time>2018-03-23T21:32:37Z</time>
      </trkpt>
      <trkpt lat="47.50868" lon="-3.11949">
        <ele>12</ele>
        <time>2018-03-23T21:33:37Z</time>
      </trkpt>
      <trkpt lat="47.50875" lon="-3.11903">
        <ele>10</ele>
        <time>2018-03-23T21:34:37Z</time>
      </trkpt>
      <trkpt lat="47.50882" lon="-3.11829">
        <ele>8</ele>
        <time>2018-03-23T21:35:37Z</time>
      </trkpt>
      <trkpt lat="47.50868" lon="-3.11835">
        <ele>9</ele>
        <time>2018-03-23T21:36:37Z</time>
      </trkpt>
      <trkpt lat="47.50842" lon="-3.1184">
        <ele>9</ele>
        <time>2018-03-23T21:37:37Z</time>
      </trkpt>
      <trkpt lat="47.5081" lon="-3.11844">
        <ele>9</ele>
        <time>2018-03-23T21:38:37Z</time>
      </trkpt>
      <trkpt lat="47.50776" lon="-3.11863">
        <ele>8</ele>
        <time>2018-03-23T21:39:37Z</time>
      </trkpt>
      <trkpt lat="47.50746" lon="-3.11898">
        <ele>9</ele>
        <time>2018-03-23T21:40:37Z</time>
      </trkpt>
      <trkpt lat="47.50715" lon="-3.11926">
        <ele>9</ele>
        <time>2018-03-23T21:41:37Z</time>
      </trkpt>
      <trkpt lat="47.50687" lon="-3.11916">
        <ele>8</ele>
        <time>2018-03-23T21:42:37Z</time>
      </trkpt>
      <trkpt lat="47.50663" lon="-3.11898">
        <ele>8</ele>
        <time>2018-03-23T21:43:37Z</time>
      </trkpt>
      <trkpt lat="47.50641" lon="-3.11892">
        <ele>7</ele>
        <time>2018-03-23T21:44:37Z</time>
      </trkpt>
      <trkpt lat="47.50611" lon="-3.11889">
        <ele>7</ele>
        <time>2018-03-23T21:45:37Z</time>
      </trkpt>
      <trkpt lat="47.50579" lon="-3.11886">
        <ele>6</ele>
        <time>2018-03-23T21:46:37Z</time>
      </trkpt>
      <trkpt lat="47.50547" lon="-3.11891">
        <ele>6</ele>
        <time>2018-03-23T21:47:37Z</time>
      </trkpt>
      <trkpt lat="47.50506" lon="-3.1191">
        <ele>7</ele>
        <time>2018-03-23T21:48:37Z</time>
      </trkpt>
      <trkpt lat="47.50472" lon="-3.11923">
        <ele>7</ele>
        <time>2018-03-23T21:49:37Z</time>
      </trkpt>
      <trkpt lat="47.50447" lon="-3.11934">
        <ele>7</ele>
        <time>2018-03-23T21:50:37Z</time>
      </trkpt>
      <trkpt lat="47.50408" lon="-3.1196">
        <ele>5</ele>
        <time>2018-03-23T21:51:37Z</time>
      </trkpt>
      <trkpt lat="47.50382" lon="-3.11971">
        <ele>5</ele>
        <time>2018-03-23T21:52:37Z</time>
      </trkpt>
      <trkpt lat="47.5034" lon="-3.11977">
        <ele>6</ele>
        <time>2018-03-23T21:53:37Z</time>
      </trkpt>
      <trkpt lat="47.50304" lon="-3.11984">
        <ele>6</ele>
        <time>2018-03-23T21:54:37Z</time>
      </trkpt>
      <trkpt lat="47.50262" lon="-3.11986">
        <ele>6</ele>
        <time>2018-03-23T21:55:37Z</time>
      </trkpt>
      <trkpt lat="47.5023" lon="-3.11986">
        <ele>5</ele>
        <time>2018-03-23T21:56:37Z</time>
      </trkpt>
      <trkpt lat="47.50202" lon="-3.11984">
        <ele>5</ele>
        <time>2018-03-23T21:57:37Z</time>
      </trkpt>
      <trkpt lat="47.5017" lon="-3.11981">
        <ele>5</ele>
        <time>2018-03-23T21:58:37Z</time>
      </trkpt>
      <trkpt lat="47.50141" lon="-3.11973">
        <ele>6</ele>
        <time>2018-03-23T21:59:37Z</time>
      </trkpt>
      <trkpt lat="47.50111" lon="-3.11968">
        <ele>7</ele>
        <time>2018-03-23T22:00:37Z</time>
      </trkpt>
      <trkpt lat="47.50081" lon="-3.11956">
        <ele>8</ele>
        <time>2018-03-23T22:01:37Z</time>
      </trkpt>
      <trkpt lat="47.50049" lon="-3.11945">
        <ele>7</ele>
        <time>2018-03-23T22:02:37Z</time>
      </trkpt>
      <trkpt lat="47.5001" lon="-3.11932">
        <ele>7</ele>
        <time>2018-03-23T22:03:37Z</time>
      </trkpt>
      <trkpt lat="47.49983" lon="-3.1193">
        <ele>7</ele>
        <time>2018-03-23T22:04:37Z</time>
      </trkpt>
      <trkpt lat="47.49953" lon="-3.11928">
        <ele>7</ele>
        <time>2018-03-23T22:05:37Z</time>
      </trkpt>
      <trkpt lat="47.49917" lon="-3.11908">
        <ele>6</ele>
        <time>2018-03-23T22:06:37Z</time>
      </trkpt>
      <trkpt lat="47.49895" lon="-3.11906">
        <ele>6</ele>
        <time>2018-03-23T22:07:37Z</time>
      </trkpt>
      <trkpt lat="47.49857" lon="-3.11887">
        <ele>6</ele>
        <time>2018-03-23T22:08:37Z</time>
      </trkpt>
      <trkpt lat="47.49834" lon="-3.1187">
        <ele>5</ele>
        <time>2018-03-23T22:09:37Z</time>
      </trkpt>
      <trkpt lat="47.49808" lon="-3.11857">
        <ele>6</ele>
        <time>2018-03-23T22:10:37Z</time>
      </trkpt>
      <trkpt lat="47.4978" lon="-3.11844">
        <ele>6</ele>
        <time>2018-03-23T22:11:37Z</time>
      </trkpt>
      <trkpt lat="47.49752" lon="-3.11831">
        <ele>6</ele>
        <time>2018-03-23T22:12:37Z</time>
      </trkpt>
      <trkpt lat="47.49728" lon="-3.11812">
        <ele>5</ele>
        <time>2018-03-23T22:13:37Z</time>
      </trkpt>
      <trkpt lat="47.49698" lon="-3.11801">
        <ele>5</ele>
        <time>2018-03-23T22:14:37Z</time>
      </trkpt>
      <trkpt lat="47.49672" lon="-3.11763">
        <ele>5</ele>
        <time>2018-03-23T22:15:37Z</time>
      </trkpt>
      <trkpt lat="47.49644" lon="-3.11741">
        <ele>5</ele>
        <time>2018-03-23T22:16:37Z</time>
      </trkpt>
      <trkpt lat="47.49628" lon="-3.11694">
        <ele>4</ele>
        <time>2018-03-23T22:17:37Z</time>
      </trkpt>
      <trkpt lat="47.49627" lon="-3.11657">
        <ele>4</ele>
        <time>2018-03-23T22:18:37Z</time>
      </trkpt>
      <trkpt lat="47.49601" lon="-3.11636">
        <ele>5</ele>
        <time>2018-03-23T22:19:37Z</time>
      </trkpt>
      <trkpt lat="47.49576" lon="-3.11606">
        <ele>6</ele>
        <time>2018-03-23T22:20:37Z</time>
      </trkpt>
      <trkpt lat="47.49557" lon="-3.11557">
        <ele>6</ele>
        <time>2018-03-23T22:21:37Z</time>
      </trkpt>
      <trkpt lat="47.49532" lon="-3.11581">
        <ele>6</ele>
        <time>2018-03-23T22:22:37Z</time>
      </trkpt>
      <trkpt lat="47.49508" lon="-3.11601">
        <ele>7</ele>
        <time>2018-03-23T22:23:37Z</time>
      </trkpt>
      <trkpt lat="47.4949" lon="-3.11616">
        <ele>8</ele>
        <time>2018-03-23T22:24:37Z</time>
      </trkpt>
      <trkpt lat="47.49465" lon="-3.11635">
        <ele>9</ele>
        <time>2018-03-23T22:25:37Z</time>
      </trkpt>
      <trkpt lat="47.49448" lon="-3.11651">
        <ele>9</ele>
        <time>2018-03-23T22:26:37Z</time>
      </trkpt>
      <trkpt lat="47.49433" lon="-3.11672">
        <ele>11</ele>
        <time>2018-03-23T22:27:37Z</time>
      </trkpt>
      <trkpt lat="47.49443" lon="-3.11717">
        <ele>11</ele>
        <time>2018-03-23T22:28:37Z</time>
      </trkpt>
      <trkpt lat="47.49433" lon="-3.11752">
        <ele>14</ele>
        <time>2018-03-23T22:29:37Z</time>
      </trkpt>
      <trkpt lat="47.49434" lon="-3.1179">
        <ele>14</ele>
        <time>2018-03-23T22:30:37Z</time>
      </trkpt>
      <trkpt lat="47.49449" lon="-3.11825">
        <ele>14</ele>
        <time>2018-03-23T22:31:37Z</time>
      </trkpt>
      <trkpt lat="47.49464" lon="-3.11868">
        <ele>15</ele>
        <time>2018-03-23T22:32:37Z</time>
      </trkpt>
      <trkpt lat="47.49473" lon="-3.11911">
        <ele>16</ele>
        <time>2018-03-23T22:33:37Z</time>
      </trkpt>
      <trkpt lat="47.49477" lon="-3.11949">
        <ele>17</ele>
        <time>2018-03-23T22:34:37Z</time>
      </trkpt>
      <trkpt lat="47.49456" lon="-3.11973">
        <ele>17</ele>
        <time>2018-03-23T22:35:37Z</time>
      </trkpt>
      <trkpt lat="47.49431" lon="-3.1199">
        <ele>18</ele>
        <time>2018-03-23T22:36:37Z</time>
      </trkpt>
      <trkpt lat="47.49422" lon="-3.12048">
        <ele>18</ele>
        <time>2018-03-23T22:37:37Z</time>
      </trkpt>
      <trkpt lat="47.49408" lon="-3.12106">
        <ele>18</ele>
        <time>2018-03-23T22:38:37Z</time>
      </trkpt>
      <trkpt lat="47.49395" lon="-3.12142">
        <ele>18</ele>
        <time>2018-03-23T22:39:37Z</time>
      </trkpt>
      <trkpt lat="47.49378" lon="-3.122">
        <ele>19</ele>
        <time>2018-03-23T22:40:37Z</time>
      </trkpt>
      <trkpt lat="47.49354" lon="-3.12234">
        <ele>20</ele>
        <time>2018-03-23T22:41:37Z</time>
      </trkpt>
      <trkpt lat="47.49354" lon="-3.12262">
        <ele>20</ele>
        <time>2018-03-23T22:42:37Z</time>
      </trkpt>
      <trkpt lat="47.4938" lon="-3.12271">
        <ele>20</ele>
        <time>2018-03-23T22:43:37Z</time>
      </trkpt>
      <trkpt lat="47.4938" lon="-3.12314">
        <ele>20</ele>
        <time>2018-03-23T22:44:37Z</time>
      </trkpt>
      <trkpt lat="47.49385" lon="-3.1238">
        <ele>20</ele>
        <time>2018-03-23T22:45:37Z</time>
      </trkpt>
      <trkpt lat="47.49407" lon="-3.12423">
        <ele>21</ele>
        <time>2018-03-23T22:46:37Z</time>
      </trkpt>
      <trkpt lat="47.49429" lon="-3.12462">
        <ele>23</ele>
        <time>2018-03-23T22:47:37Z</time>
      </trkpt>
      <trkpt lat="47.49441" lon="-3.12499">
        <ele>23</ele>
        <time>2018-03-23T22:48:37Z</time>
      </trkpt>
      <trkpt lat="47.49445" lon="-3.12542">
        <ele>25</ele>
        <time>2018-03-23T22:49:37Z</time>
      </trkpt>
      <trkpt lat="47.49595" lon="-3.12572">
        <ele>22</ele>
        <time>2018-03-23T22:50:37Z</time>
      </trkpt>
      <trkpt lat="47.49619" lon="-3.12626">
        <ele>21</ele>
        <time>2018-03-23T22:51:37Z</time>
      </trkpt>
      <trkpt lat="47.49656" lon="-3.12707">
        <ele>21</ele>
        <time>2018-03-23T22:52:37Z</time>
      </trkpt>
      <trkpt lat="47.49679" lon="-3.12767">
        <ele>21</ele>
        <time>2018-03-23T22:53:37Z</time>
      </trkpt>
      <trkpt lat="47.49699" lon="-3.12859">
        <ele>23</ele>
        <time>2018-03-23T22:54:37Z</time>
      </trkpt>
      <trkpt lat="47.49712" lon="-3.1291">
        <ele>24</ele>
        <time>2018-03-23T22:55:37Z</time>
      </trkpt>
      <trkpt lat="47.49746" lon="-3.12997">
        <ele>27</ele>
        <time>2018-03-23T22:56:37Z</time>
      </trkpt>
      <trkpt lat="47.49814" lon="-3.1307">
        <ele>28</ele>
        <time>2018-03-23T22:57:37Z</time>
      </trkpt>
      <trkpt lat="47.49864" lon="-3.13119">
        <ele>27</ele>
        <time>2018-03-23T22:58:37Z</time>
      </trkpt>
      <trkpt lat="47.49916" lon="-3.13211">
        <ele>27</ele>
        <time>2018-03-23T22:59:37Z</time>
      </trkpt>
      <trkpt lat="47.49944" lon="-3.13323">
        <ele>28</ele>
        <time>2018-03-23T23:00:37Z</time>
      </trkpt>
      <trkpt lat="47.49957" lon="-3.13389">
        <ele>30</ele>
        <time>2018-03-23T23:01:37Z</time>
      </trkpt>
      <trkpt lat="47.49975" lon="-3.13428">
        <ele>31</ele>
        <time>2018-03-23T23:02:37Z</time>
      </trkpt>
      <trkpt lat="47.50012" lon="-3.13509">
        <ele>30</ele>
        <time>2018-03-23T23:03:37Z</time>
      </trkpt>
      <trkpt lat="47.50027" lon="-3.13487">
        <ele>29</ele>
        <time>2018-03-23T23:04:37Z</time>
      </trkpt>
      <trkpt lat="47.50001" lon="-3.13451">
        <ele>29</ele>
        <time>2018-03-23T23:05:37Z</time>
      </trkpt>
      <trkpt lat="47.50045" lon="-3.1346">
        <ele>27</ele>
        <time>2018-03-23T23:06:37Z</time>
      </trkpt>
      <trkpt lat="47.50073" lon="-3.13452">
        <ele>26</ele>
        <time>2018-03-23T23:07:37Z</time>
      </trkpt>
      <trkpt lat="47.50108" lon="-3.13456">
        <ele>21</ele>
        <time>2018-03-23T23:08:37Z</time>
      </trkpt>
      <trkpt lat="47.50127" lon="-3.13445">
        <ele>20</ele>
        <time>2018-03-23T23:09:37Z</time>
      </trkpt>
      <trkpt lat="47.5012" lon="-3.13415">
        <ele>18</ele>
        <time>2018-03-23T23:10:37Z</time>
      </trkpt>
      <trkpt lat="47.50106" lon="-3.13373">
        <ele>18</ele>
        <time>2018-03-23T23:11:37Z</time>
      </trkpt>
      <trkpt lat="47.50111" lon="-3.13322">
        <ele>17</ele>
        <time>2018-03-23T23:12:37Z</time>
      </trkpt>
      <trkpt lat="47.50109" lon="-3.13272">
        <ele>17</ele>
        <time>2018-03-23T23:13:37Z</time>
      </trkpt>
      <trkpt lat="47.5017" lon="-3.1329">
        <ele>11</ele>
        <time>2018-03-23T23:14:37Z</time>
      </trkpt>
      <trkpt lat="47.50215" lon="-3.13304">
        <ele>11</ele>
        <time>2018-03-23T23:15:37Z</time>
      </trkpt>
      <trkpt lat="47.50285" lon="-3.13333">
        <ele>11</ele>
        <time>2018-03-23T23:16:37Z</time>
      </trkpt>
      <trkpt lat="47.5031" lon="-3.13337">
        <ele>12</ele>
        <time>2018-03-23T23:17:37Z</time>
      </trkpt>
      <trkpt lat="47.50368" lon="-3.13353">
        <ele>13</ele>
        <time>2018-03-23T23:18:37Z</time>
      </trkpt>
      <trkpt lat="47.50435" lon="-3.1336">
        <ele>13</ele>
        <time>2018-03-23T23:19:37Z</time>
      </trkpt>
      <trkpt lat="47.50468" lon="-3.1338">
        <ele>13</ele>
        <time>2018-03-23T23:20:37Z</time>
      </trkpt>
      <trkpt lat="47.50516" lon="-3.13405">
        <ele>13</ele>
        <time>2018-03-23T23:21:37Z</time>
      </trkpt>
      <trkpt lat="47.5055" lon="-3.13421">
        <ele>14</ele>
        <time>2018-03-23T23:22:37Z</time>
      </trkpt>
      <trkpt lat="47.506" lon="-3.13441">
        <ele>15</ele>
        <time>2018-03-23T23:23:37Z</time>
      </trkpt>
      <trkpt lat="47.50639" lon="-3.13466">
        <ele>15</ele>
        <time>2018-03-23T23:24:37Z</time>
      </trkpt>
      <trkpt lat="47.50673" lon="-3.13504">
        <ele>16</ele>
        <time>2018-03-23T23:25:37Z</time>
      </trkpt>
      <trkpt lat="47.50701" lon="-3.13559">
        <ele>17</ele>
        <time>2018-03-23T23:26:37Z</time>
      </trkpt>
      <trkpt lat="47.50729" lon="-3.13611">
        <ele>17</ele>
        <time>2018-03-23T23:27:37Z</time>
      </trkpt>
      <trkpt lat="47.50762" lon="-3.13659">
        <ele>17</ele>
        <time>2018-03-23T23:28:37Z</time>
      </trkpt>
      <trkpt lat="47.50794" lon="-3.13703">
        <ele>16</ele>
        <time>2018-03-23T23:29:37Z</time>
      </trkpt>
      <trkpt lat="47.50831" lon="-3.13747">
        <ele>15</ele>
        <time>2018-03-23T23:30:37Z</time>
      </trkpt>
      <trkpt lat="47.50874" lon="-3.13786">
        <ele>15</ele>
        <time>2018-03-23T23:31:37Z</time>
      </trkpt>
      <trkpt lat="47.5094" lon="-3.13822">
        <ele>14</ele>
        <time>2018-03-23T23:32:37Z</time>
      </trkpt>
      <trkpt lat="47.50951" lon="-3.1384">
        <ele>14</ele>
        <time>2018-03-23T23:33:37Z</time>
      </trkpt>
      <trkpt lat="47.50938" lon="-3.13904">
        <ele>15</ele>
        <time>2018-03-23T23:34:37Z</time>
      </trkpt>
      <trkpt lat="47.50922" lon="-3.13931">
        <ele>15</ele>
        <time>2018-03-23T23:35:37Z</time>
      </trkpt>
      <trkpt lat="47.50912" lon="-3.13979">
        <ele>16</ele>
        <time>2018-03-23T23:36:37Z</time>
      </trkpt>
      <trkpt lat="47.50913" lon="-3.14012">
        <ele>16</ele>
        <time>2018-03-23T23:37:37Z</time>
      </trkpt>
      <trkpt lat="47.50909" lon="-3.14055">
        <ele>16</ele>
        <time>2018-03-23T23:38:37Z</time>
      </trkpt>
      <trkpt lat="47.50906" lon="-3.14086">
        <ele>16</ele>
        <time>2018-03-23T23:39:37Z</time>
      </trkpt>
      <trkpt lat="47.50898" lon="-3.14112">
        <ele>17</ele>
        <time>2018-03-23T23:40:37Z</time>
      </trkpt>
      <trkpt lat="47.50882" lon="-3.14142">
        <ele>17</ele>
        <time>2018-03-23T23:41:37Z</time>
      </trkpt>
      <trkpt lat="47.50856" lon="-3.14176">
        <ele>17</ele>
        <time>2018-03-23T23:42:37Z</time>
      </trkpt>
      <trkpt lat="47.50838" lon="-3.14213">
        <ele>18</ele>
        <time>2018-03-23T23:43:37Z</time>
      </trkpt>
      <trkpt lat="47.50833" lon="-3.14241">
        <ele>18</ele>
        <time>2018-03-23T23:44:37Z</time>
      </trkpt>
      <trkpt lat="47.50792" lon="-3.14234">
        <ele>18</ele>
        <time>2018-03-23T23:45:37Z</time>
      </trkpt>
      <trkpt lat="47.50738" lon="-3.14251">
        <ele>19</ele>
        <time>2018-03-23T23:46:37Z</time>
      </trkpt>
      <trkpt lat="47.50721" lon="-3.14309">
        <ele>20</ele>
        <time>2018-03-23T23:47:37Z</time>
      </trkpt>
      <trkpt lat="47.50708" lon="-3.14359">
        <ele>20</ele>
        <time>2018-03-23T23:48:37Z</time>
      </trkpt>
      <trkpt lat="47.50713" lon="-3.14569">
        <ele>21</ele>
        <time>2018-03-23T23:49:37Z</time>
      </trkpt>
      <trkpt lat="47.50707" lon="-3.14415">
        <ele>20</ele>
        <time>2018-03-23T23:50:37Z</time>
      </trkpt>
      <trkpt lat="47.50708" lon="-3.14449">
        <ele>20</ele>
        <time>2018-03-23T23:51:37Z</time>
      </trkpt>
      <trkpt lat="47.5071" lon="-3.14516">
        <ele>21</ele>
        <time>2018-03-23T23:52:37Z</time>
      </trkpt>
      <trkpt lat="47.50715" lon="-3.14669">
        <ele>20</ele>
        <time>2018-03-23T23:53:37Z</time>
      </trkpt>
      <trkpt lat="47.50701" lon="-3.14739">
        <ele>19</ele>
        <time>2018-03-23T23:54:37Z</time>
      </trkpt>
      <trkpt lat="47.50699" lon="-3.14771">
        <ele>19</ele>
        <time>2018-03-23T23:55:37Z</time>
      </trkpt>
      <trkpt lat="47.50743" lon="-3.14835">
        <ele>18</ele>
        <time>2018-03-23T23:56:37Z</time>
      </trkpt>
      <trkpt lat="47.50771" lon="-3.1487">
        <ele>15</ele>
        <time>2018-03-23T23:57:37Z</time>
      </trkpt>
      <trkpt lat="47.5082" lon="-3.14908">
        <ele>11</ele>
        <time>2018-03-23T23:58:37Z</time>
      </trkpt>
      <trkpt lat="47.50864" lon="-3.14874">
        <ele>11</ele>
        <time>2018-03-23T23:59:37Z</time>
      </trkpt>
      <trkpt lat="47.50896" lon="-3.14837">
        <ele>11</ele>
        <time>2018-03-24T00:00:37Z</time>
      </trkpt>
      <trkpt lat="47.50921" lon="-3.14911">
        <ele>7</ele>
        <time>2018-03-24T00:01:37Z</time>
      </trkpt>
      <trkpt lat="47.50959" lon="-3.14968">
        <ele>8</ele>
        <time>2018-03-24T00:02:37Z</time>
      </trkpt>
      <trkpt lat="47.50984" lon="-3.14981">
        <ele>9</ele>
        <time>2018-03-24T00:03:37Z</time>
      </trkpt>
      <trkpt lat="47.50974" lon="-3.15012">
        <ele>8</ele>
        <time>2018-03-24T00:04:37Z</time>
      </trkpt>
      <trkpt lat="47.5098" lon="-3.15047">
        <ele>7</ele>
        <time>2018-03-24T00:05:37Z</time>
      </trkpt>
      <trkpt lat="47.51007" lon="-3.15078">
        <ele>9</ele>
        <time>2018-03-24T00:06:37Z</time>
      </trkpt>
      <trkpt lat="47.51036" lon="-3.15097">
        <ele>9</ele>
        <time>2018-03-24T00:07:37Z</time>
      </trkpt>
      <trkpt lat="47.51054" lon="-3.15113">
        <ele>9</ele>
        <time>2018-03-24T00:08:37Z</time>
      </trkpt>
      <trkpt lat="47.51079" lon="-3.15135">
        <ele>9</ele>
        <time>2018-03-24T00:09:37Z</time>
      </trkpt>
      <trkpt lat="47.51097" lon="-3.15161">
        <ele>10</ele>
        <time>2018-03-24T00:10:37Z</time>
      </trkpt>
      <trkpt lat="47.51136" lon="-3.15192">
        <ele>7</ele>
        <time>2018-03-24T00:11:37Z</time>
      </trkpt>
      <trkpt lat="47.51158" lon="-3.15178">
        <ele>8</ele>
        <time>2018-03-24T00:12:37Z</time>
      </trkpt>
      <trkpt lat="47.51187" lon="-3.15155">
        <ele>9</ele>
        <time>2018-03-24T00:13:37Z</time>
      </trkpt>
      <trkpt lat="47.51204" lon="-3.15108">
        <ele>10</ele>
        <time>2018-03-24T00:14:37Z</time>
      </trkpt>
      <trkpt lat="47.5123" lon="-3.15084">
        <ele>9</ele>
        <time>2018-03-24T00:15:37Z</time>
      </trkpt>
      <trkpt lat="47.51249" lon="-3.15055">
        <ele>10</ele>
        <time>2018-03-24T00:16:37Z</time>
      </trkpt>
      <trkpt lat="47.51262" lon="-3.15019">
        <ele>9</ele>
        <time>2018-03-24T00:17:37Z</time>
      </trkpt>
      <trkpt lat="47.51334" lon="-3.1501">
        <ele>9</ele>
        <time>2018-03-24T00:18:37Z</time>
      </trkpt>
      <trkpt lat="47.51359" lon="-3.15004">
        <ele>10</ele>
        <time>2018-03-24T00:19:37Z</time>
      </trkpt>
      <trkpt lat="47.51386" lon="-3.14998">
        <ele>13</ele>
        <time>2018-03-24T00:20:37Z</time>
      </trkpt>
      <trkpt lat="47.51401" lon="-3.15036">
        <ele>10</ele>
        <time>2018-03-24T00:21:37Z</time>
      </trkpt>
      <trkpt lat="47.51431" lon="-3.15069">
        <ele>11</ele>
        <time>2018-03-24T00:22:37Z</time>
      </trkpt>
      <trkpt lat="47.51479" lon="-3.15081">
        <ele>12</ele>
        <time>2018-03-24T00:23:37Z</time>
      </trkpt>
      <trkpt lat="47.51531" lon="-3.15097">
        <ele>12</ele>
        <time>2018-03-24T00:24:37Z</time>
      </trkpt>
      <trkpt lat="47.51559" lon="-3.15131">
        <ele>11</ele>
        <time>2018-03-24T00:25:37Z</time>
      </trkpt>
      <trkpt lat="47.51585" lon="-3.15126">
        <ele>14</ele>
        <time>2018-03-24T00:26:37Z</time>
      </trkpt>
      <trkpt lat="47.51595" lon="-3.1511">
        <ele>15</ele>
        <time>2018-03-24T00:27:37Z</time>
      </trkpt>
      <trkpt lat="47.51615" lon="-3.15102">
        <ele>15</ele>
        <time>2018-03-24T00:28:37Z</time>
      </trkpt>
      <trkpt lat="47.51648" lon="-3.15091">
        <ele>16</ele>
        <time>2018-03-24T00:29:37Z</time>
      </trkpt>
      <trkpt lat="47.5166" lon="-3.15108">
        <ele>15</ele>
        <time>2018-03-24T00:30:37Z</time>
      </trkpt>
      <trkpt lat="47.51683" lon="-3.15133">
        <ele>15</ele>
        <time>2018-03-24T00:31:37Z</time>
      </trkpt>
      <trkpt lat="47.51695" lon="-3.15166">
        <ele>14</ele>
        <time>2018-03-24T00:32:37Z</time>
      </trkpt>
      <trkpt lat="47.51709" lon="-3.15194">
        <ele>11</ele>
        <time>2018-03-24T00:33:37Z</time>
      </trkpt>
      <trkpt lat="47.5173" lon="-3.15215">
        <ele>10</ele>
        <time>2018-03-24T00:34:37Z</time>
      </trkpt>
      <trkpt lat="47.51758" lon="-3.15237">
        <ele>12</ele>
        <time>2018-03-24T00:35:37Z</time>
      </trkpt>
      <trkpt lat="47.51779" lon="-3.15258">
        <ele>8</ele>
        <time>2018-03-24T00:36:37Z</time>
      </trkpt>
      <trkpt lat="47.5181" lon="-3.15251">
        <ele>8</ele>
        <time>2018-03-24T00:37:37Z</time>
      </trkpt>
      <trkpt lat="47.51837" lon="-3.1524">
        <ele>10</ele>
        <time>2018-03-24T00:38:37Z</time>
      </trkpt>
      <trkpt lat="47.51865" lon="-3.1523">
        <ele>12</ele>
        <time>2018-03-24T00:39:37Z</time>
      </trkpt>
      <trkpt lat="47.51898" lon="-3.15237">
        <ele>10</ele>
        <time>2018-03-24T00:40:37Z</time>
      </trkpt>
      <trkpt lat="47.51924" lon="-3.15229">
        <ele>10</ele>
        <time>2018-03-24T00:41:37Z</time>
      </trkpt>
      <trkpt lat="47.51952" lon="-3.15205">
        <ele>13</ele>
        <time>2018-03-24T00:42:37Z</time>
      </trkpt>
      <trkpt lat="47.51983" lon="-3.15211">
        <ele>13</ele>
        <time>2018-03-24T00:43:37Z</time>
      </trkpt>
      <trkpt lat="47.52022" lon="-3.15232">
        <ele>14</ele>
        <time>2018-03-24T00:44:37Z</time>
      </trkpt>
      <trkpt lat="47.52049" lon="-3.15247">
        <ele>16</ele>
        <time>2018-03-24T00:45:37Z</time>
      </trkpt>
      <trkpt lat="47.52073" lon="-3.15258">
        <ele>13</ele>
        <time>2018-03-24T00:46:37Z</time>
      </trkpt>
      <trkpt lat="47.521" lon="-3.15282">
        <ele>12</ele>
        <time>2018-03-24T00:47:37Z</time>
      </trkpt>
      <trkpt lat="47.52118" lon="-3.15288">
        <ele>12</ele>
        <time>2018-03-24T00:48:37Z</time>
      </trkpt>
      <trkpt lat="47.52153" lon="-3.15278">
        <ele>12</ele>
        <time>2018-03-24T00:49:37Z</time>
      </trkpt>
      <trkpt lat="47.52175" lon="-3.15277">
        <ele>13</ele>
        <time>2018-03-24T00:50:37Z</time>
      </trkpt>
      <trkpt lat="47.52208" lon="-3.15268">
        <ele>12</ele>
        <time>2018-03-24T00:51:37Z</time>
      </trkpt>
      <trkpt lat="47.52237" lon="-3.1528">
        <ele>12</ele>
        <time>2018-03-24T00:52:37Z</time>
      </trkpt>
      <trkpt lat="47.52265" lon="-3.15279">
        <ele>12</ele>
        <time>2018-03-24T00:53:37Z</time>
      </trkpt>
      <trkpt lat="47.52285" lon="-3.15297">
        <ele>12</ele>
        <time>2018-03-24T00:54:37Z</time>
      </trkpt>
      <trkpt lat="47.52295" lon="-3.15331">
        <ele>11</ele>
        <time>2018-03-24T00:55:37Z</time>
      </trkpt>
      <trkpt lat="47.52323" lon="-3.15352">
        <ele>9</ele>
        <time>2018-03-24T00:56:37Z</time>
      </trkpt>
      <trkpt lat="47.52347" lon="-3.15368">
        <ele>8</ele>
        <time>2018-03-24T00:57:37Z</time>
      </trkpt>
      <trkpt lat="47.52375" lon="-3.15367">
        <ele>8</ele>
        <time>2018-03-24T00:58:37Z</time>
      </trkpt>
      <trkpt lat="47.52394" lon="-3.1539">
        <ele>7</ele>
        <time>2018-03-24T00:59:37Z</time>
      </trkpt>
      <trkpt lat="47.52405" lon="-3.15414">
        <ele>7</ele>
        <time>2018-03-24T01:00:37Z</time>
      </trkpt>
      <trkpt lat="47.52411" lon="-3.15454">
        <ele>7</ele>
        <time>2018-03-24T01:01:37Z</time>
      </trkpt>
      <trkpt lat="47.52401" lon="-3.15475">
        <ele>7</ele>
        <time>2018-03-24T01:02:37Z</time>
      </trkpt>
      <trkpt lat="47.52393" lon="-3.15512">
        <ele>7</ele>
        <time>2018-03-24T01:03:37Z</time>
      </trkpt>
      <trkpt lat="47.52407" lon="-3.15565">
        <ele>8</ele>
        <time>2018-03-24T01:04:37Z</time>
      </trkpt>
      <trkpt lat="47.52415" lon="-3.15599">
        <ele>9</ele>
        <time>2018-03-24T01:05:37Z</time>
      </trkpt>
      <trkpt lat="47.52404" lon="-3.15666">
        <ele>9</ele>
        <time>2018-03-24T01:06:37Z</time>
      </trkpt>
      <trkpt lat="47.52391" lon="-3.15721">
        <ele>8</ele>
        <time>2018-03-24T01:07:37Z</time>
      </trkpt>
      <trkpt lat="47.52391" lon="-3.15779">
        <ele>7</ele>
        <time>2018-03-24T01:08:37Z</time>
      </trkpt>
      <trkpt lat="47.52395" lon="-3.15809">
        <ele>7</ele>
        <time>2018-03-24T01:09:37Z</time>
      </trkpt>
      <trkpt lat="47.52379" lon="-3.15852">
        <ele>6</ele>
        <time>2018-03-24T01:10:37Z</time>
      </trkpt>
      <trkpt lat="47.52365" lon="-3.15906">
        <ele>6</ele>
        <time>2018-03-24T01:11:37Z</time>
      </trkpt>
      <trkpt lat="47.52382" lon="-3.1593">
        <ele>5</ele>
        <time>2018-03-24T01:12:37Z</time>
      </trkpt>
      <trkpt lat="47.52405" lon="-3.15915">
        <ele>5</ele>
        <time>2018-03-24T01:13:37Z</time>
      </trkpt>
      <trkpt lat="47.52427" lon="-3.15908">
        <ele>6</ele>
        <time>2018-03-24T01:14:37Z</time>
      </trkpt>
      <trkpt lat="47.52449" lon="-3.1588">
        <ele>7</ele>
        <time>2018-03-24T01:15:37Z</time>
      </trkpt>
      <trkpt lat="47.52449" lon="-3.15842">
        <ele>8</ele>
        <time>2018-03-24T01:16:37Z</time>
      </trkpt>
      <trkpt lat="47.5245" lon="-3.15807">
        <ele>10</ele>
        <time>2018-03-24T01:17:37Z</time>
      </trkpt>
      <trkpt lat="47.52475" lon="-3.15812">
        <ele>10</ele>
        <time>2018-03-24T01:18:37Z</time>
      </trkpt>
      <trkpt lat="47.52495" lon="-3.15844">
        <ele>9</ele>
        <time>2018-03-24T01:19:37Z</time>
      </trkpt>
      <trkpt lat="47.52521" lon="-3.15872">
        <ele>10</ele>
        <time>2018-03-24T01:20:37Z</time>
      </trkpt>
      <trkpt lat="47.52553" lon="-3.1589">
        <ele>10</ele>
        <time>2018-03-24T01:21:37Z</time>
      </trkpt>
      <trkpt lat="47.52586" lon="-3.15899">
        <ele>11</ele>
        <time>2018-03-24T01:22:37Z</time>
      </trkpt>
      <trkpt lat="47.52614" lon="-3.1592">
        <ele>8</ele>
        <time>2018-03-24T01:23:37Z</time>
      </trkpt>
      <trkpt lat="47.52633" lon="-3.15932">
        <ele>8</ele>
        <time>2018-03-24T01:24:37Z</time>
      </trkpt>
      <trkpt lat="47.52666" lon="-3.15945">
        <ele>8</ele>
        <time>2018-03-24T01:25:37Z</time>
      </trkpt>
      <trkpt lat="47.52699" lon="-3.15957">
        <ele>7</ele>
        <time>2018-03-24T01:26:37Z</time>
      </trkpt>
      <trkpt lat="47.52722" lon="-3.15945">
        <ele>7</ele>
        <time>2018-03-24T01:27:37Z</time>
      </trkpt>
      <trkpt lat="47.52753" lon="-3.1596">
        <ele>8</ele>
        <time>2018-03-24T01:28:37Z</time>
      </trkpt>
      <trkpt lat="47.52785" lon="-3.15947">
        <ele>8</ele>
        <time>2018-03-24T01:29:37Z</time>
      </trkpt>
      <trkpt lat="47.52808" lon="-3.15956">
        <ele>8</ele>
        <time>2018-03-24T01:30:37Z</time>
      </trkpt>
      <trkpt lat="47.52827" lon="-3.15977">
        <ele>9</ele>
        <time>2018-03-24T01:31:37Z</time>
      </trkpt>
      <trkpt lat="47.52817" lon="-3.16022">
        <ele>8</ele>
        <time>2018-03-24T01:32:37Z</time>
      </trkpt>
      <trkpt lat="47.52821" lon="-3.16048">
        <ele>7</ele>
        <time>2018-03-24T01:33:37Z</time>
      </trkpt>
      <trkpt lat="47.52847" lon="-3.16069">
        <ele>7</ele>
        <time>2018-03-24T01:34:37Z</time>
      </trkpt>
      <trkpt lat="47.5286" lon="-3.16106">
        <ele>6</ele>
        <time>2018-03-24T01:35:37Z</time>
      </trkpt>
      <trkpt lat="47.52893" lon="-3.16139">
        <ele>5</ele>
        <time>2018-03-24T01:36:37Z</time>
      </trkpt>
      <trkpt lat="47.52907" lon="-3.16145">
        <ele>5</ele>
        <time>2018-03-24T01:37:37Z</time>
      </trkpt>
      <trkpt lat="47.52926" lon="-3.16166">
        <ele>5</ele>
        <time>2018-03-24T01:38:37Z</time>
      </trkpt>
      <trkpt lat="47.52952" lon="-3.16157">
        <ele>5</ele>
        <time>2018-03-24T01:39:37Z</time>
      </trkpt>
      <trkpt lat="47.52948" lon="-3.1612">
        <ele>6</ele>
        <time>2018-03-24T01:40:37Z</time>
      </trkpt>
      <trkpt lat="47.5294" lon="-3.16089">
        <ele>8</ele>
        <time>2018-03-24T01:41:37Z</time>
      </trkpt>
      <trkpt lat="47.52938" lon="-3.16051">
        <ele>10</ele>
        <time>2018-03-24T01:42:37Z</time>
      </trkpt>
      <trkpt lat="47.52928" lon="-3.16022">
        <ele>10</ele>
        <time>2018-03-24T01:43:37Z</time>
      </trkpt>
      <trkpt lat="47.52913" lon="-3.15992">
        <ele>9</ele>
        <time>2018-03-24T01:44:37Z</time>
      </trkpt>
      <trkpt lat="47.52884" lon="-3.15969">
        <ele>9</ele>
        <time>2018-03-24T01:45:37Z</time>
      </trkpt>
      <trkpt lat="47.52859" lon="-3.1595">
        <ele>9</ele>
        <time>2018-03-24T01:46:37Z</time>
      </trkpt>
      <trkpt lat="47.52839" lon="-3.15919">
        <ele>8</ele>
        <time>2018-03-24T01:47:37Z</time>
      </trkpt>
      <trkpt lat="47.52825" lon="-3.15887">
        <ele>8</ele>
        <time>2018-03-24T01:48:37Z</time>
      </trkpt>
      <trkpt lat="47.52802" lon="-3.15882">
        <ele>8</ele>
        <time>2018-03-24T01:49:37Z</time>
      </trkpt>
      <trkpt lat="47.52783" lon="-3.15894">
        <ele>8</ele>
        <time>2018-03-24T01:50:37Z</time>
      </trkpt>
      <trkpt lat="47.52747" lon="-3.1587">
        <ele>9</ele>
        <time>2018-03-24T01:51:37Z</time>
      </trkpt>
      <trkpt lat="47.52737" lon="-3.15824">
        <ele>8</ele>
        <time>2018-03-24T01:52:37Z</time>
      </trkpt>
      <trkpt lat="47.5273" lon="-3.1577">
        <ele>8</ele>
        <time>2018-03-24T01:53:37Z</time>
      </trkpt>
      <trkpt lat="47.52736" lon="-3.15719">
        <ele>7</ele>
        <time>2018-03-24T01:54:37Z</time>
      </trkpt>
      <trkpt lat="47.52733" lon="-3.1567">
        <ele>5</ele>
        <time>2018-03-24T01:55:37Z</time>
      </trkpt>
      <trkpt lat="47.52732" lon="-3.15614">
        <ele>6</ele>
        <time>2018-03-24T01:56:37Z</time>
      </trkpt>
      <trkpt lat="47.52722" lon="-3.15558">
        <ele>6</ele>
        <time>2018-03-24T01:57:37Z</time>
      </trkpt>
      <trkpt lat="47.52724" lon="-3.15498">
        <ele>5</ele>
        <time>2018-03-24T01:58:37Z</time>
      </trkpt>
      <trkpt lat="47.52717" lon="-3.15449">
        <ele>5</ele>
        <time>2018-03-24T01:59:37Z</time>
      </trkpt>
      <trkpt lat="47.52717" lon="-3.15402">
        <ele>5</ele>
        <time>2018-03-24T02:00:37Z</time>
      </trkpt>
      <trkpt lat="47.52715" lon="-3.15355">
        <ele>5</ele>
        <time>2018-03-24T02:01:37Z</time>
      </trkpt>
      <trkpt lat="47.52717" lon="-3.15288">
        <ele>6</ele>
        <time>2018-03-24T02:02:37Z</time>
      </trkpt>
      <trkpt lat="47.52727" lon="-3.15241">
        <ele>7</ele>
        <time>2018-03-24T02:03:37Z</time>
      </trkpt>
      <trkpt lat="47.52737" lon="-3.15202">
        <ele>8</ele>
        <time>2018-03-24T02:04:37Z</time>
      </trkpt>
      <trkpt lat="47.52759" lon="-3.15176">
        <ele>7</ele>
        <time>2018-03-24T02:05:37Z</time>
      </trkpt>
      <trkpt lat="47.52778" lon="-3.15155">
        <ele>7</ele>
        <time>2018-03-24T02:06:37Z</time>
      </trkpt>
      <trkpt lat="47.52798" lon="-3.15123">
        <ele>7</ele>
        <time>2018-03-24T02:07:37Z</time>
      </trkpt>
      <trkpt lat="47.5283" lon="-3.1511">
        <ele>7</ele>
        <time>2018-03-24T02:08:37Z</time>
      </trkpt>
      <trkpt lat="47.5286" lon="-3.15078">
        <ele>7</ele>
        <time>2018-03-24T02:09:37Z</time>
      </trkpt>
      <trkpt lat="47.52883" lon="-3.15091">
        <ele>5</ele>
        <time>2018-03-24T02:10:37Z</time>
      </trkpt>
      <trkpt lat="47.52905" lon="-3.15073">
        <ele>5</ele>
        <time>2018-03-24T02:11:37Z</time>
      </trkpt>
      <trkpt lat="47.52934" lon="-3.15061">
        <ele>4</ele>
        <time>2018-03-24T02:12:37Z</time>
      </trkpt>
      <trkpt lat="47.5294" lon="-3.15035">
        <ele>5</ele>
        <time>2018-03-24T02:13:37Z</time>
      </trkpt>
      <trkpt lat="47.52944" lon="-3.14998">
        <ele>6</ele>
        <time>2018-03-24T02:14:37Z</time>
      </trkpt>
      <trkpt lat="47.5296" lon="-3.14973">
        <ele>5</ele>
        <time>2018-03-24T02:15:37Z</time>
      </trkpt>
      <trkpt lat="47.52962" lon="-3.14934">
        <ele>5</ele>
        <time>2018-03-24T02:16:37Z</time>
      </trkpt>
      <trkpt lat="47.52963" lon="-3.14897">
        <ele>5</ele>
        <time>2018-03-24T02:17:37Z</time>
      </trkpt>
      <trkpt lat="47.52973" lon="-3.14857">
        <ele>5</ele>
        <time>2018-03-24T02:18:37Z</time>
      </trkpt>
      <trkpt lat="47.52981" lon="-3.14829">
        <ele>6</ele>
        <time>2018-03-24T02:19:37Z</time>
      </trkpt>
      <trkpt lat="47.52981" lon="-3.1479">
        <ele>6</ele>
        <time>2018-03-24T02:20:37Z</time>
      </trkpt>
      <trkpt lat="47.52982" lon="-3.14749">
        <ele>6</ele>
        <time>2018-03-24T02:21:37Z</time>
      </trkpt>
      <trkpt lat="47.52981" lon="-3.14687">
        <ele>7</ele>
        <time>2018-03-24T02:22:37Z</time>
      </trkpt>
      <trkpt lat="47.53004" lon="-3.1464">
        <ele>6</ele>
        <time>2018-03-24T02:23:37Z</time>
      </trkpt>
      <trkpt lat="47.5302" lon="-3.14616">
        <ele>6</ele>
        <time>2018-03-24T02:24:37Z</time>
      </trkpt>
      <trkpt lat="47.53037" lon="-3.14588">
        <ele>6</ele>
        <time>2018-03-24T02:25:37Z</time>
      </trkpt>
      <trkpt lat="47.53056" lon="-3.14571">
        <ele>8</ele>
        <time>2018-03-24T02:26:37Z</time>
      </trkpt>
      <trkpt lat="47.53078" lon="-3.14548">
        <ele>8</ele>
        <time>2018-03-24T02:27:37Z</time>
      </trkpt>
      <trkpt lat="47.53098" lon="-3.14537">
        <ele>5</ele>
        <time>2018-03-24T02:28:37Z</time>
      </trkpt>
      <trkpt lat="47.53121" lon="-3.14516">
        <ele>5</ele>
        <time>2018-03-24T02:29:37Z</time>
      </trkpt>
      <trkpt lat="47.5314" lon="-3.14473">
        <ele>7</ele>
        <time>2018-03-24T02:30:37Z</time>
      </trkpt>
      <trkpt lat="47.53165" lon="-3.14436">
        <ele>8</ele>
        <time>2018-03-24T02:31:37Z</time>
      </trkpt>
      <trkpt lat="47.53188" lon="-3.14419">
        <ele>7</ele>
        <time>2018-03-24T02:32:37Z</time>
      </trkpt>
      <trkpt lat="47.53215" lon="-3.14408">
        <ele>8</ele>
        <time>2018-03-24T02:33:37Z</time>
      </trkpt>
      <trkpt lat="47.53244" lon="-3.14404">
        <ele>7</ele>
        <time>2018-03-24T02:34:37Z</time>
      </trkpt>
      <trkpt lat="47.53282" lon="-3.14374">
        <ele>4</ele>
        <time>2018-03-24T02:35:37Z</time>
      </trkpt>
      <trkpt lat="47.53322" lon="-3.14282">
        <ele>6</ele>
        <time>2018-03-24T02:36:37Z</time>
      </trkpt>
      <trkpt lat="47.53341" lon="-3.14249">
        <ele>7</ele>
        <time>2018-03-24T02:37:37Z</time>
      </trkpt>
      <trkpt lat="47.53354" lon="-3.14226">
        <ele>6</ele>
        <time>2018-03-24T02:38:37Z</time>
      </trkpt>
      <trkpt lat="47.53367" lon="-3.14198">
        <ele>6</ele>
        <time>2018-03-24T02:39:37Z</time>
      </trkpt>
      <trkpt lat="47.53391" lon="-3.1417">
        <ele>6</ele>
        <time>2018-03-24T02:40:37Z</time>
      </trkpt>
      <trkpt lat="47.53414" lon="-3.14146">
        <ele>7</ele>
        <time>2018-03-24T02:41:37Z</time>
      </trkpt>
      <trkpt lat="47.53434" lon="-3.14134">
        <ele>6</ele>
        <time>2018-03-24T02:42:37Z</time>
      </trkpt>
      <trkpt lat="47.53473" lon="-3.14104">
        <ele>5</ele>
        <time>2018-03-24T02:43:37Z</time>
      </trkpt>
      <trkpt lat="47.53502" lon="-3.1408">
        <ele>6</ele>
        <time>2018-03-24T02:44:37Z</time>
      </trkpt>
      <trkpt lat="47.5354" lon="-3.14067">
        <ele>7</ele>
        <time>2018-03-24T02:45:37Z</time>
      </trkpt>
      <trkpt lat="47.53569" lon="-3.14054">
        <ele>7</ele>
        <time>2018-03-24T02:46:37Z</time>
      </trkpt>
      <trkpt lat="47.53601" lon="-3.14043">
        <ele>7</ele>
        <time>2018-03-24T02:47:37Z</time>
      </trkpt>
      <trkpt lat="47.53641" lon="-3.14022">
        <ele>8</ele>
        <time>2018-03-24T02:48:37Z</time>
      </trkpt>
      <trkpt lat="47.53666" lon="-3.14005">
        <ele>9</ele>
        <time>2018-03-24T02:49:37Z</time>
      </trkpt>
      <trkpt lat="47.53699" lon="-3.13973">
        <ele>8</ele>
        <time>2018-03-24T02:50:37Z</time>
      </trkpt>
      <trkpt lat="47.53719" lon="-3.13949">
        <ele>8</ele>
        <time>2018-03-24T02:51:37Z</time>
      </trkpt>
      <trkpt lat="47.53726" lon="-3.13929">
        <ele>9</ele>
        <time>2018-03-24T02:52:37Z</time>
      </trkpt>
      <trkpt lat="47.53748" lon="-3.13924">
        <ele>9</ele>
        <time>2018-03-24T02:53:37Z</time>
      </trkpt>
      <trkpt lat="47.53778" lon="-3.13901">
        <ele>8</ele>
        <time>2018-03-24T02:54:37Z</time>
      </trkpt>
      <trkpt lat="47.53815" lon="-3.13881">
        <ele>8</ele>
        <time>2018-03-24T02:55:37Z</time>
      </trkpt>
      <trkpt lat="47.53842" lon="-3.13861">
        <ele>6</ele>
        <time>2018-03-24T02:56:37Z</time>
      </trkpt>
      <trkpt lat="47.53871" lon="-3.13852">
        <ele>6</ele>
        <time>2018-03-24T02:57:37Z</time>
      </trkpt>
      <trkpt lat="47.53899" lon="-3.13829">
        <ele>8</ele>
        <time>2018-03-24T02:58:37Z</time>
      </trkpt>
      <trkpt lat="47.53927" lon="-3.13814">
        <ele>7</ele>
        <time>2018-03-24T02:59:37Z</time>
      </trkpt>
      <trkpt lat="47.53955" lon="-3.1379">
        <ele>7</ele>
        <time>2018-03-24T03:00:37Z</time>
      </trkpt>
      <trkpt lat="47.53984" lon="-3.13782">
        <ele>7</ele>
        <time>2018-03-24T03:01:37Z</time>
      </trkpt>
      <trkpt lat="47.54011" lon="-3.1376">
        <ele>7</ele>
        <time>2018-03-24T03:02:37Z</time>
      </trkpt>
      <trkpt lat="47.54018" lon="-3.13704">
        <ele>7</ele>
        <time>2018-03-24T03:03:37Z</time>
      </trkpt>
      <trkpt lat="47.54008" lon="-3.13659">
        <ele>6</ele>
        <time>2018-03-24T03:04:37Z</time>
      </trkpt>
      <trkpt lat="47.54055" lon="-3.13638">
        <ele>7</ele>
        <time>2018-03-24T03:05:37Z</time>
      </trkpt>
      <trkpt lat="47.5409" lon="-3.13616">
        <ele>9</ele>
        <time>2018-03-24T03:06:37Z</time>
      </trkpt>
      <trkpt lat="47.54121" lon="-3.13606">
        <ele>10</ele>
        <time>2018-03-24T03:07:37Z</time>
      </trkpt>
      <trkpt lat="47.54173" lon="-3.13576">
        <ele>13</ele>
        <time>2018-03-24T03:08:37Z</time>
      </trkpt>
      <trkpt lat="47.54216" lon="-3.13569">
        <ele>13</ele>
        <time>2018-03-24T03:09:37Z</time>
      </trkpt>
      <trkpt lat="47.54245" lon="-3.13567">
        <ele>14</ele>
        <time>2018-03-24T03:10:37Z</time>
      </trkpt>
      <trkpt lat="47.54267" lon="-3.13554">
        <ele>13</ele>
        <time>2018-03-24T03:11:37Z</time>
      </trkpt>
      <trkpt lat="47.54263" lon="-3.13513">
        <ele>12</ele>
        <time>2018-03-24T03:12:37Z</time>
      </trkpt>
    </trkseg>
  </trk>
</gpx>